Time;durP1;ratioP1;P1;durP2;ratioP2;P2;SDS_P1;SDS_P2;PMS_P1;PMS_P2;Temp;Humidity;BMP_temperature;BMP_pressure;BME280_temperature;BME280_humidity;BME280_pressure;Samples;Min_cycle;Max_cycle;Signal;HPM_P1;HPM_P2
2021/12/06 00:00:02;;;;;;;50.20;25.87;;;;;;;-145.19;100.00;57938.22;5065608;28;20280;-68
2021/12/06 00:02:27;;;;;;;53.80;27.67;;;;;;;-145.19;100.00;57938.22;5048170;28;20044;-69
2021/12/06 00:04:54;;;;;;;53.90;26.80;;;;;;;-145.19;100.00;57938.22;5067312;28;20269;-67
2021/12/06 00:07:22;;;;;;;54.07;27.20;;;;;;;-145.19;100.00;57938.22;5069331;28;20592;-67
2021/12/06 00:09:48;;;;;;;50.03;26.57;;;;;;;-145.19;100.00;57938.22;5069475;28;20277;-67
2021/12/06 00:12:15;;;;;;;48.00;26.07;;;;;;;-145.19;100.00;57938.22;5069516;28;20289;-67
2021/12/06 00:14:41;;;;;;;50.33;26.23;;;;;;;-145.19;100.00;57938.22;5068891;28;20047;-68
2021/12/06 00:17:12;;;;;;;49.80;27.00;;;;;;;-145.19;100.00;57938.22;5069350;28;20769;-68
2021/12/06 00:19:40;;;;;;;51.47;27.07;;;;;;;-145.19;100.00;57938.22;5069027;28;20634;-68
2021/12/06 00:22:09;;;;;;;56.27;26.60;;;;;;;-145.19;100.00;57938.22;5069214;28;20273;-68
2021/12/06 00:24:35;;;;;;;53.47;27.57;;;;;;;-145.19;100.00;57938.22;5069119;28;20315;-67
2021/12/06 00:27:01;;;;;;;60.10;28.87;;;;;;;-145.19;100.00;57938.22;5069754;28;20324;-67
2021/12/06 00:29:26;;;;;;;54.60;27.87;;;;;;;-145.19;100.00;57938.22;5068814;28;20041;-68
2021/12/06 00:31:52;;;;;;;52.47;27.57;;;;;;;-145.19;100.00;57938.22;5069478;28;20123;-68
2021/12/06 00:34:19;;;;;;;55.20;27.63;;;;;;;-145.19;100.00;57938.22;5068746;28;20072;-68
2021/12/06 00:37:15;;;;;;;54.67;27.87;;;;;;;-145.19;100.00;57938.22;5069215;28;20097;-68
2021/12/06 00:39:32;;;;;;;53.90;28.07;;;;;;;-145.19;100.00;57938.22;5067466;28;20698;-67
2021/12/06 00:41:59;;;;;;;50.80;26.33;;;;;;;-145.19;100.00;57938.22;5068694;28;20362;-67
2021/12/06 00:44:24;;;;;;;53.50;27.53;;;;;;;-145.19;100.00;57938.22;5068580;28;20048;-68
2021/12/06 00:46:51;;;;;;;54.60;27.33;;;;;;;-145.19;100.00;57938.22;5069004;28;20284;-68
2021/12/06 00:49:16;;;;;;;53.23;28.17;;;;;;;-145.19;100.00;57938.22;5068354;28;20036;-68
2021/12/06 00:51:42;;;;;;;49.73;27.10;;;;;;;-145.19;100.00;57938.22;5068597;28;20277;-68
2021/12/06 00:54:10;;;;;;;51.30;26.97;;;;;;;-145.19;100.00;57938.22;5069229;28;20460;-68
2021/12/06 00:56:36;;;;;;;50.40;27.30;;;;;;;-145.19;100.00;57938.22;5049481;28;20113;-68
2021/12/06 00:59:02;;;;;;;51.73;26.93;;;;;;;-145.19;100.00;57938.22;5050545;28;20289;-68
2021/12/06 01:01:28;;;;;;;57.43;27.30;;;;;;;-145.19;100.00;57938.22;5068289;28;20273;-68
2021/12/06 01:03:53;;;;;;;47.87;26.60;;;;;;;-145.19;100.00;57938.22;5068337;28;20037;-68
2021/12/06 01:06:19;;;;;;;50.53;25.57;;;;;;;-145.19;100.00;57938.22;5068446;28;20044;-68
2021/12/06 01:08:44;;;;;;;49.37;26.27;;;;;;;-145.19;100.00;57938.22;5069467;28;20094;-68
2021/12/06 01:11:11;;;;;;;48.37;27.47;;;;;;;-145.19;100.00;57938.22;5068104;28;20097;-68
2021/12/06 01:13:38;;;;;;;49.30;26.03;;;;;;;-145.19;100.00;57938.22;5050866;28;20120;-67
2021/12/06 01:16:06;;;;;;;52.07;26.20;;;;;;;-145.19;100.00;57938.22;5067806;28;20307;-68
2021/12/06 01:18:32;;;;;;;46.60;26.20;;;;;;;-145.19;100.00;57938.22;5068186;28;20645;-67
2021/12/06 01:23:31;;;;;;;48.93;25.03;;;;;;;-145.19;100.00;57938.22;5067850;28;20044;-67
2021/12/06 01:39:12;;;;;;;54.87;26.53;;;;;;;-145.19;100.00;57938.22;5067420;28;20284;-67
2021/12/06 01:41:54;;;;;;;51.17;26.67;;;;;;;-145.19;100.00;57938.22;5050572;28;20289;-67
2021/12/06 01:44:23;;;;;;;54.93;25.53;;;;;;;-145.19;100.00;57938.22;5067203;28;20751;-67
2021/12/06 01:47:19;;;;;;;54.27;27.17;;;;;;;-145.19;100.00;57938.22;5067506;28;20274;-67
2021/12/06 01:49:49;;;;;;;52.42;26.33;;;;;;;-145.19;100.00;57938.22;5066240;28;20262;-67
2021/12/06 01:52:20;;;;;;;56.47;26.73;;;;;;;-145.19;100.00;57938.22;5067322;28;20513;-67
2021/12/06 01:54:46;;;;;;;54.57;26.80;;;;;;;-145.19;100.00;57938.22;5066976;28;20269;-67
2021/12/06 01:57:12;;;;;;;56.93;27.83;;;;;;;-145.19;100.00;57938.22;5049409;28;20689;-67
2021/12/06 01:59:39;;;;;;;57.73;27.70;;;;;;;-145.19;100.00;57938.22;5067418;28;20323;-67
2021/12/06 02:02:05;;;;;;;61.63;27.97;;;;;;;-145.19;100.00;57938.22;5067489;28;20348;-67
2021/12/06 02:04:32;;;;;;;51.40;25.83;;;;;;;-145.19;100.00;57938.22;5067156;28;20298;-67
2021/12/06 02:06:59;;;;;;;55.60;26.00;;;;;;;-145.19;100.00;57938.22;5067300;28;20322;-68
2021/12/06 02:09:26;;;;;;;59.47;26.67;;;;;;;-145.19;100.00;57938.22;5066765;28;20297;-67
2021/12/06 02:11:54;;;;;;;53.53;25.63;;;;;;;-145.19;100.00;57938.22;5067602;28;20301;-67
2021/12/06 02:14:38;;;;;;;56.80;25.53;;;;;;;-145.19;100.00;57938.22;5066700;28;20689;-67
2021/12/06 02:17:15;;;;;;;53.73;27.23;;;;;;;-145.19;100.00;57938.22;5066946;28;20339;-67
2021/12/06 02:19:50;;;;;;;48.63;25.27;;;;;;;-145.19;100.00;57938.22;5066508;28;20359;-67
2021/12/06 02:22:19;;;;;;;49.85;23.45;;;;;;;-145.19;100.00;57938.22;5067314;28;20790;-67
2021/12/06 02:24:45;;;;;;;52.47;26.40;;;;;;;-145.19;100.00;57938.22;5066520;28;20036;-67
2021/12/06 02:27:13;;;;;;;51.47;26.00;;;;;;;-145.19;100.00;57938.22;5066274;28;20752;-67
2021/12/06 02:29:40;;;;;;;56.67;27.17;;;;;;;-145.19;100.00;57938.22;5067038;28;20059;-67
2021/12/06 02:32:10;;;;;;;57.80;27.70;;;;;;;-145.19;100.00;57938.22;5066634;28;20780;-67
2021/12/06 02:34:40;;;;;;;54.43;26.70;;;;;;;-145.19;100.00;57938.22;5066419;28;20269;-68
2021/12/06 02:37:07;;;;;;;55.70;26.27;;;;;;;-145.19;100.00;57938.22;5067281;28;20270;-67
2021/12/06 02:39:32;;;;;;;54.03;26.60;;;;;;;-145.19;100.00;57938.22;5066205;28;20774;-67
2021/12/06 02:42:00;;;;;;;52.87;27.63;;;;;;;-145.19;100.00;57938.22;5066342;28;20277;-68
2021/12/06 02:44:26;;;;;;;52.93;25.23;;;;;;;-145.19;100.00;57938.22;5067167;28;20118;-67
2021/12/06 02:46:51;;;;;;;59.07;27.93;;;;;;;-145.19;100.00;57938.22;5065210;28;20273;-67
2021/12/06 02:49:16;;;;;;;53.30;26.27;;;;;;;-145.19;100.00;57938.22;5066282;28;20268;-67
2021/12/06 02:51:42;;;;;;;52.10;26.43;;;;;;;-145.19;100.00;57938.22;5066973;28;20100;-68
2021/12/06 02:54:09;;;;;;;56.27;29.13;;;;;;;-145.19;100.00;57938.22;5066348;28;20509;-68
2021/12/06 02:56:50;;;;;;;50.90;28.37;;;;;;;-145.19;100.00;57938.22;5066131;28;20032;-68
2021/12/06 02:59:18;;;;;;;51.70;25.50;;;;;;;-145.19;100.00;57938.22;5065639;28;20274;-68
2021/12/06 03:01:47;;;;;;;55.13;27.80;;;;;;;-145.19;100.00;57938.22;5066649;28;20269;-67
2021/12/06 03:04:12;;;;;;;51.13;26.20;;;;;;;-145.19;100.00;57938.22;5066324;28;20664;-68
2021/12/06 03:06:40;;;;;;;55.83;27.57;;;;;;;-145.19;100.00;57938.22;5066391;28;20264;-68
2021/12/06 03:09:29;;;;;;;53.23;26.90;;;;;;;-145.19;100.00;57938.22;5066353;28;20116;-68
2021/12/06 03:12:02;;;;;;;53.70;26.47;;;;;;;-145.19;100.00;57938.22;5066376;28;20297;-67
2021/12/06 03:14:34;;;;;;;51.57;26.63;;;;;;;-145.19;100.00;57938.22;5066123;28;20274;-68
2021/12/06 03:17:01;;;;;;;53.40;26.80;;;;;;;-145.19;100.00;57938.22;5066601;28;20629;-68
2021/12/06 03:19:28;;;;;;;55.40;27.07;;;;;;;-145.19;100.00;57938.22;5065914;28;20364;-68
2021/12/06 03:21:53;;;;;;;50.10;26.07;;;;;;;-145.19;100.00;57938.22;5065919;28;20285;-68
2021/12/06 03:24:19;;;;;;;50.73;26.87;;;;;;;-145.19;100.00;57938.22;5066013;28;20350;-68
2021/12/06 03:26:46;;;;;;;51.63;26.07;;;;;;;-145.19;100.00;57938.22;5066279;28;20033;-68
2021/12/06 03:29:12;;;;;;;55.40;27.57;;;;;;;-145.19;100.00;57938.22;5066439;28;20048;-68
2021/12/06 03:31:38;;;;;;;58.70;28.00;;;;;;;-145.19;100.00;57938.22;5066093;28;20297;-68
2021/12/06 03:34:05;;;;;;;58.40;28.13;;;;;;;-145.19;100.00;57938.22;5066173;28;20639;-67
2021/12/06 03:36:33;;;;;;;64.90;29.43;;;;;;;-145.19;100.00;57938.22;5065743;28;20124;-67
2021/12/06 03:39:00;;;;;;;61.30;29.47;;;;;;;-145.19;100.00;57938.22;5067992;28;20724;-68
2021/12/06 03:41:28;;;;;;;68.37;29.27;;;;;;;-145.19;100.00;57938.22;5069416;28;20276;-67
2021/12/06 03:43:54;;;;;;;64.73;29.30;;;;;;;-145.19;100.00;57938.22;5070046;28;20355;-67
2021/12/06 03:46:21;;;;;;;65.70;31.20;;;;;;;-145.19;100.00;57938.22;5069710;28;20269;-68
2021/12/06 03:48:47;;;;;;;67.23;31.20;;;;;;;-145.19;100.00;57938.22;5069945;28;20353;-68
2021/12/06 03:51:14;;;;;;;75.17;31.90;;;;;;;-145.19;100.00;57938.22;5070360;28;20360;-67
2021/12/06 03:53:39;;;;;;;67.20;31.10;;;;;;;-145.19;100.00;57938.22;5070200;28;20048;-67
2021/12/06 03:56:06;;;;;;;70.00;31.20;;;;;;;-145.19;100.00;57938.22;5069454;28;20265;-67
2021/12/06 03:58:33;;;;;;;70.17;31.83;;;;;;;-145.19;100.00;57938.22;5069789;28;20052;-67
2021/12/06 04:01:02;;;;;;;73.43;32.57;;;;;;;-145.19;100.00;57938.22;5069600;28;20758;-67
2021/12/06 04:03:30;;;;;;;72.83;32.70;;;;;;;-145.19;100.00;57938.22;5069386;28;20277;-67
2021/12/06 04:05:56;;;;;;;67.80;30.60;;;;;;;-145.19;100.00;57938.22;5069576;28;20270;-68
2021/12/06 04:08:22;;;;;;;74.20;32.30;;;;;;;-145.19;100.00;57938.22;5069337;28;20300;-68
2021/12/06 04:10:48;;;;;;;71.40;32.37;;;;;;;-145.19;100.00;57938.22;5069906;28;20777;-67
2021/12/06 04:13:14;;;;;;;73.80;31.43;;;;;;;-145.19;100.00;57938.22;5069596;28;20037;-67
2021/12/06 04:15:41;;;;;;;80.13;32.53;;;;;;;-145.19;100.00;57938.22;5069390;28;20288;-67
2021/12/06 04:18:07;;;;;;;79.80;32.13;;;;;;;-145.19;100.00;57938.22;5069404;28;20261;-67
2021/12/06 04:20:33;;;;;;;75.87;31.60;;;;;;;-145.19;100.00;57938.22;5068900;28;20272;-67
2021/12/06 04:22:59;;;;;;;73.43;32.83;;;;;;;-145.19;100.00;57938.22;5069623;28;20127;-67
2021/12/06 04:25:24;;;;;;;80.27;35.10;;;;;;;-145.19;100.00;57938.22;5068681;28;20352;-68
2021/12/06 04:27:54;;;;;;;72.83;33.10;;;;;;;-145.19;100.00;57938.22;5070370;28;20029;-67
2021/12/06 04:30:23;;;;;;;79.17;34.13;;;;;;;-145.19;100.00;57938.22;5068816;28;20043;-67
2021/12/06 04:32:50;;;;;;;83.37;34.80;;;;;;;-145.19;100.00;57938.22;5069068;28;20846;-67
2021/12/06 04:35:16;;;;;;;73.67;33.77;;;;;;;-145.19;100.00;57938.22;5068652;28;20286;-67
2021/12/06 04:37:42;;;;;;;68.50;32.70;;;;;;;-145.19;100.00;57938.22;5069177;28;20736;-67
2021/12/06 04:40:09;;;;;;;72.60;32.93;;;;;;;-145.19;100.00;57938.22;5068946;28;20029;-67
2021/12/06 04:42:35;;;;;;;72.73;31.40;;;;;;;-145.19;100.00;57938.22;5069099;28;20625;-67
2021/12/06 04:45:00;;;;;;;71.80;31.80;;;;;;;-145.19;100.00;57938.22;5068599;28;20281;-68
2021/12/06 04:47:26;;;;;;;72.37;30.63;;;;;;;-145.19;100.00;57938.22;5069655;28;20037;-67
2021/12/06 04:49:51;;;;;;;74.90;32.27;;;;;;;-145.19;100.00;57938.22;5067811;28;20040;-67
2021/12/06 04:52:18;;;;;;;101.23;37.30;;;;;;;-145.19;100.00;57938.22;5068326;28;20045;-67
2021/12/06 04:54:48;;;;;;;80.40;34.43;;;;;;;-145.19;100.00;57938.22;5068750;28;20049;-67
2021/12/06 04:57:21;;;;;;;72.97;32.73;;;;;;;-145.19;100.00;57938.22;5068826;28;20265;-67
2021/12/06 04:59:50;;;;;;;75.83;33.27;;;;;;;-145.19;100.00;57938.22;5068499;28;20280;-67
2021/12/06 05:02:24;;;;;;;79.63;35.03;;;;;;;-145.19;100.00;57938.22;5068547;28;20335;-67
2021/12/06 05:04:53;;;;;;;78.87;35.73;;;;;;;-145.19;100.00;57938.22;5068847;28;20637;-67
2021/12/06 05:07:32;;;;;;;88.80;36.43;;;;;;;-145.19;100.00;57938.22;5068408;28;20355;-67
2021/12/06 05:09:58;;;;;;;81.67;34.80;;;;;;;-145.19;100.00;57938.22;5068496;28;20301;-67
2021/12/06 05:12:28;;;;;;;78.80;36.03;;;;;;;-145.19;100.00;57938.22;5068095;28;20743;-67
2021/12/06 05:14:54;;;;;;;73.13;34.60;;;;;;;-145.19;100.00;57938.22;5068455;28;20040;-67
2021/12/06 05:17:20;;;;;;;77.63;31.37;;;;;;;-145.19;100.00;57938.22;5068030;28;20281;-67
2021/12/06 05:19:46;;;;;;;80.67;35.27;;;;;;;-145.19;100.00;57938.22;5050442;28;20284;-67
2021/12/06 05:22:12;;;;;;;75.43;34.10;;;;;;;-145.19;100.00;57938.22;5068594;28;20273;-68
2021/12/06 05:24:38;;;;;;;75.67;33.77;;;;;;;-145.19;100.00;57938.22;5068636;28;20040;-67
2021/12/06 05:27:05;;;;;;;71.30;33.20;;;;;;;-145.19;100.00;57938.22;5068098;28;20717;-67
2021/12/06 05:29:32;;;;;;;75.23;34.20;;;;;;;-145.19;100.00;57938.22;5068169;28;20335;-67
2021/12/06 05:31:59;;;;;;;75.23;34.60;;;;;;;-145.19;100.00;57938.22;5067793;28;20266;-67
2021/12/06 05:34:38;;;;;;;71.57;33.67;;;;;;;-145.19;100.00;57938.22;5068187;28;20311;-67
2021/12/06 05:37:09;;;;;;;73.40;32.83;;;;;;;-145.19;100.00;57938.22;5063310;28;20340;-67
2021/12/06 05:39:35;;;;;;;72.13;34.00;;;;;;;-145.19;100.00;57938.22;5064745;28;20278;-67
2021/12/06 05:42:04;;;;;;;83.23;36.13;;;;;;;-145.19;100.00;57938.22;5066076;28;20278;-67
2021/12/06 05:44:29;;;;;;;72.17;33.13;;;;;;;-145.19;100.00;57938.22;5066724;28;20040;-67
2021/12/06 05:46:55;;;;;;;78.07;35.73;;;;;;;-145.19;100.00;57938.22;5065731;28;20748;-67
2021/12/06 05:49:21;;;;;;;80.27;35.83;;;;;;;-145.19;100.00;57938.22;5111796;22;20052;-68
2021/12/06 05:51:47;;;;;;;75.70;35.30;;;;;;;-145.19;100.00;57938.22;5077713;28;20499;-68
2021/12/06 05:54:12;;;;;;;75.83;34.63;;;;;;;-145.19;100.00;57938.22;5074721;28;20301;-68
2021/12/06 05:56:38;;;;;;;73.33;34.80;;;;;;;-145.19;100.00;57938.22;5069406;28;20815;-68
2021/12/06 05:59:04;;;;;;;71.93;35.57;;;;;;;-145.19;100.00;57938.22;5082770;28;20077;-69
2021/12/06 06:01:30;;;;;;;78.63;33.70;;;;;;;-145.19;100.00;57938.22;5087295;28;20048;-69
2021/12/06 06:04:01;;;;;;;70.23;34.33;;;;;;;-145.19;100.00;57938.22;5086217;28;20047;-69
2021/12/06 06:06:29;;;;;;;70.40;34.13;;;;;;;-145.19;100.00;57938.22;5088266;28;20760;-68
2021/12/06 06:08:54;;;;;;;76.13;36.37;;;;;;;-145.19;100.00;57938.22;5087890;28;20343;-68
2021/12/06 06:11:20;;;;;;;81.83;36.33;;;;;;;-145.19;100.00;57938.22;5087188;28;20293;-70
2021/12/06 06:13:45;;;;;;;78.83;36.47;;;;;;;-145.19;100.00;57938.22;5088849;28;20044;-68
2021/12/06 06:16:11;;;;;;;74.63;36.17;;;;;;;-145.19;100.00;57938.22;5087248;28;20404;-68
2021/12/06 06:18:36;;;;;;;82.47;36.97;;;;;;;-145.19;100.00;57938.22;5069481;28;20035;-68
2021/12/06 06:21:02;;;;;;;76.03;37.10;;;;;;;-145.19;100.00;57938.22;5086885;28;20044;-68
2021/12/06 06:23:28;;;;;;;79.83;35.90;;;;;;;-145.19;100.00;57938.22;5087562;28;20044;-68
2021/12/06 06:25:54;;;;;;;72.87;35.63;;;;;;;-145.19;100.00;57938.22;5087002;28;20276;-69
2021/12/06 06:28:20;;;;;;;80.60;35.17;;;;;;;-145.19;100.00;57938.22;5088079;28;20411;-68
2021/12/06 06:30:45;;;;;;;78.60;35.90;;;;;;;-145.19;100.00;57938.22;5087157;28;20097;-68
2021/12/06 06:33:11;;;;;;;75.33;34.97;;;;;;;-145.19;100.00;57938.22;5087404;28;20097;-68
2021/12/06 06:35:36;;;;;;;71.03;36.40;;;;;;;-145.19;100.00;57938.22;5086944;28;20089;-68
2021/12/06 06:38:02;;;;;;;69.83;35.07;;;;;;;-145.19;100.00;57938.22;5087038;28;20494;-68
2021/12/06 06:40:28;;;;;;;70.63;34.43;;;;;;;-145.19;100.00;57938.22;5087310;28;20039;-69
2021/12/06 06:42:53;;;;;;;73.60;34.83;;;;;;;-145.19;100.00;57938.22;5087861;28;20040;-68
2021/12/06 06:45:21;;;;;;;71.23;34.40;;;;;;;-145.19;100.00;57938.22;5081342;28;20397;-68
2021/12/06 06:47:47;;;;;;;76.50;36.03;;;;;;;-145.19;100.00;57938.22;5074873;28;20037;-68
2021/12/06 06:50:13;;;;;;;73.13;35.27;;;;;;;-145.19;100.00;57938.22;5067121;28;20277;-68
2021/12/06 06:52:39;;;;;;;77.77;35.50;;;;;;;-145.19;100.00;57938.22;5072763;28;20269;-68
2021/12/06 06:55:05;;;;;;;79.40;36.07;;;;;;;-145.19;100.00;57938.22;5085629;28;20040;-68
2021/12/06 06:57:32;;;;;;;73.03;34.90;;;;;;;-145.19;100.00;57938.22;5069022;28;20247;-69
2021/12/06 06:59:57;;;;;;;76.33;36.10;;;;;;;-145.19;100.00;57938.22;5082646;28;20265;-68
2021/12/06 07:02:23;;;;;;;77.77;36.90;;;;;;;-145.19;100.00;57938.22;5083437;28;20330;-68
2021/12/06 07:04:48;;;;;;;80.90;37.47;;;;;;;-145.19;100.00;57938.22;5086050;28;20047;-68
2021/12/06 07:07:14;;;;;;;81.57;37.40;;;;;;;-145.19;100.00;57938.22;5086095;28;20127;-68
2021/12/06 07:09:42;;;;;;;79.90;36.10;;;;;;;-145.19;100.00;57938.22;5086204;28;20039;-69
2021/12/06 07:12:14;;;;;;;74.27;33.77;;;;;;;-145.19;100.00;57938.22;5065462;28;20040;-68
2021/12/06 07:14:39;;;;;;;76.87;36.30;;;;;;;-145.19;100.00;57938.22;5065089;28;20280;-68
2021/12/06 07:17:05;;;;;;;81.43;35.77;;;;;;;-145.19;100.00;57938.22;5066500;28;20254;-68
2021/12/06 07:19:30;;;;;;;83.10;34.13;;;;;;;-145.19;100.00;57938.22;5058016;28;20048;-68
2021/12/06 07:21:58;;;;;;;80.20;36.00;;;;;;;-145.19;100.00;57938.22;5065837;28;20596;-68
2021/12/06 07:24:23;;;;;;;102.13;38.00;;;;;;;-145.19;100.00;57938.22;5074218;28;20036;-68
2021/12/06 07:26:48;;;;;;;82.77;35.13;;;;;;;-145.19;100.00;57938.22;5082716;28;20269;-68
2021/12/06 07:29:14;;;;;;;92.47;37.87;;;;;;;-145.19;100.00;57938.22;5085957;28;20040;-68
2021/12/06 07:31:39;;;;;;;93.47;36.17;;;;;;;-145.19;100.00;57938.22;5086558;28;20044;-69
2021/12/06 07:34:04;;;;;;;93.53;38.63;;;;;;;-145.19;100.00;57938.22;5086701;28;20623;-68
2021/12/06 07:36:30;;;;;;;91.13;38.50;;;;;;;-145.19;100.00;57938.22;5085467;28;20056;-68
2021/12/06 07:38:56;;;;;;;88.53;37.70;;;;;;;-145.19;100.00;57938.22;5085100;28;20092;-68
2021/12/06 07:41:26;;;;;;;97.00;40.40;;;;;;;-145.19;100.00;57938.22;5070749;28;20445;-68
2021/12/06 07:43:52;;;;;;;105.93;39.27;;;;;;;-145.19;100.00;57938.22;5081854;28;20052;-68
2021/12/06 07:46:18;;;;;;;107.73;40.73;;;;;;;-145.19;100.00;57938.22;5085534;28;20277;-68
2021/12/06 07:48:44;;;;;;;119.33;41.23;;;;;;;-145.19;100.00;57938.22;5085832;28;20276;-69
2021/12/06 07:51:09;;;;;;;125.47;43.33;;;;;;;-145.19;100.00;57938.22;5084684;28;20073;-68
2021/12/06 07:53:38;;;;;;;115.07;41.10;;;;;;;-145.19;100.00;57938.22;5086029;28;20040;-68
2021/12/06 07:56:04;;;;;;;123.20;43.23;;;;;;;-145.19;100.00;57938.22;5066022;28;20626;-68
2021/12/06 07:58:30;;;;;;;117.17;40.63;;;;;;;-145.19;100.00;57938.22;5065962;28;20277;-68
2021/12/06 08:00:55;;;;;;;114.70;41.10;;;;;;;-145.19;100.00;57938.22;5081647;28;20495;-68
2021/12/06 08:03:23;;;;;;;112.27;41.07;;;;;;;-145.19;100.00;57938.22;5083000;28;20059;-68
2021/12/06 08:05:51;;;;;;;108.93;42.60;;;;;;;-145.19;100.00;57938.22;5080147;28;20522;-69
2021/12/06 08:08:37;;;;;;;115.60;41.10;;;;;;;-145.19;100.00;57938.22;5084228;28;20281;-68
2021/12/06 08:11:09;;;;;;;;;;;;;;;-145.19;100.00;57938.22;5085582;28;20273;-68
2021/12/06 08:13:35;;;;;;;113.50;40.53;;;;;;;-145.19;100.00;57938.22;5083479;28;20029;-68
2021/12/06 08:16:06;;;;;;;117.67;43.30;;;;;;;-145.19;100.00;57938.22;5083290;28;20324;-68
2021/12/06 08:18:32;;;;;;;112.30;41.23;;;;;;;-145.19;100.00;57938.22;5085613;28;20333;-68
2021/12/06 08:21:00;;;;;;;127.60;42.67;;;;;;;-145.19;100.00;57938.22;5085316;28;20273;-68
2021/12/06 08:23:26;;;;;;;118.63;43.43;;;;;;;-145.19;100.00;57938.22;5085789;28;20044;-68
2021/12/06 08:25:51;;;;;;;113.87;41.13;;;;;;;-145.19;100.00;57938.22;5082603;28;20769;-68
2021/12/06 08:28:18;;;;;;;106.10;41.00;;;;;;;-145.19;100.00;57938.22;5073121;28;20049;-68
2021/12/06 08:30:45;;;;;;;116.37;39.07;;;;;;;-145.19;100.00;57938.22;5077759;28;20048;-68
2021/12/06 08:33:12;;;;;;;119.17;41.27;;;;;;;-145.19;100.00;57938.22;5083424;28;20344;-68
2021/12/06 08:35:42;;;;;;;111.67;40.60;;;;;;;-145.19;100.00;57938.22;5060164;28;20276;-68
2021/12/06 08:38:10;;;;;;;118.27;42.20;;;;;;;-145.19;100.00;57938.22;5085717;28;20363;-68
2021/12/06 08:40:37;;;;;;;112.40;40.03;;;;;;;-145.19;100.00;57938.22;5084840;28;20280;-68
2021/12/06 08:43:03;;;;;;;99.53;40.07;;;;;;;-145.19;100.00;57938.22;5068111;28;20288;-68
2021/12/06 08:45:28;;;;;;;111.53;41.37;;;;;;;-145.19;100.00;57938.22;5079425;28;20778;-68
2021/12/06 08:47:55;;;;;;;103.23;38.73;;;;;;;-145.19;100.00;57938.22;5074518;28;20036;-68
2021/12/06 08:50:24;;;;;;;115.37;42.10;;;;;;;-145.19;100.00;57938.22;5071610;28;20461;-68
2021/12/06 08:52:51;;;;;;;118.03;41.50;;;;;;;-145.19;100.00;57938.22;5080413;28;20288;-68
2021/12/06 08:55:19;;;;;;;107.87;41.37;;;;;;;-145.19;100.00;57938.22;5044129;28;20253;-68
2021/12/06 08:57:44;;;;;;;108.73;41.73;;;;;;;-145.19;100.00;57938.22;5084430;28;20333;-68
2021/12/06 09:00:14;;;;;;;117.23;43.00;;;;;;;-145.19;100.00;57938.22;5069285;28;20824;-68
2021/12/06 09:02:40;;;;;;;119.23;44.73;;;;;;;-145.19;100.00;57938.22;5078415;28;20052;-68
2021/12/06 09:05:07;;;;;;;116.30;43.73;;;;;;;-145.19;100.00;57938.22;5083491;28;21063;-68
2021/12/06 09:07:33;;;;;;;120.40;41.73;;;;;;;-145.19;100.00;57938.22;5085946;28;20028;-69
2021/12/06 09:09:59;;;;;;;125.20;44.93;;;;;;;-145.19;100.00;57938.22;5084214;28;20259;-68
2021/12/06 09:12:28;;;;;;;115.27;43.13;;;;;;;-145.19;100.00;57938.22;5084376;28;20048;-68
2021/12/06 09:14:55;;;;;;;118.00;41.33;;;;;;;-145.19;100.00;57938.22;5073422;28;20056;-68
2021/12/06 09:17:22;;;;;;;118.87;43.70;;;;;;;-145.19;100.00;57938.22;5076334;28;20815;-68
2021/12/06 09:19:48;;;;;;;107.83;43.13;;;;;;;-145.19;100.00;57938.22;5054137;28;20295;-68
2021/12/06 09:22:14;;;;;;;112.57;41.50;;;;;;;-145.19;100.00;57938.22;5073403;28;20628;-68
2021/12/06 09:24:40;;;;;;;109.93;41.87;;;;;;;-145.19;100.00;57938.22;5052319;28;20276;-68
2021/12/06 09:27:07;;;;;;;108.30;41.87;;;;;;;-145.19;100.00;57938.22;5064420;28;20036;-68
2021/12/06 09:29:36;;;;;;;100.97;39.87;;;;;;;-145.19;100.00;57938.22;5079368;28;20039;-69
2021/12/06 09:32:07;;;;;;;87.03;34.77;;;;;;;-145.19;100.00;57938.22;5081928;28;20273;-68
2021/12/06 09:34:33;;;;;;;83.00;32.20;;;;;;;-145.19;100.00;57938.22;5065362;28;20598;-68
2021/12/06 09:36:59;;;;;;;84.00;32.87;;;;;;;-145.19;100.00;57938.22;5063651;28;20352;-68
2021/12/06 09:39:26;;;;;;;83.33;34.20;;;;;;;-145.19;100.00;57938.22;5073965;28;20791;-68
2021/12/06 09:41:52;;;;;;;81.60;33.33;;;;;;;-145.19;100.00;57938.22;5063868;28;20232;-68
2021/12/06 09:44:17;;;;;;;77.60;33.90;;;;;;;-145.19;100.00;57938.22;5074098;28;20289;-68
2021/12/06 09:46:44;;;;;;;73.57;31.30;;;;;;;-145.19;100.00;57938.22;5081741;28;20284;-68
2021/12/06 09:49:13;;;;;;;78.77;31.90;;;;;;;-145.19;100.00;57938.22;5068407;28;20093;-68
2021/12/06 09:51:41;;;;;;;64.23;29.10;;;;;;;-145.19;100.00;57938.22;5076539;28;20273;-68
2021/12/06 09:54:08;;;;;;;83.43;34.60;;;;;;;-145.19;100.00;57938.22;5076527;28;20819;-68
2021/12/06 09:56:39;;;;;;;77.37;33.77;;;;;;;-145.19;100.00;57938.22;5076787;28;20765;-68
2021/12/06 09:59:09;;;;;;;82.33;34.83;;;;;;;-145.19;100.00;57938.22;5083666;28;20831;-68
2021/12/06 10:01:39;;;;;;;96.23;40.67;;;;;;;-145.19;100.00;57938.22;5084784;28;20289;-68
2021/12/06 10:04:08;;;;;;;90.30;38.43;;;;;;;-145.19;100.00;57938.22;5063197;28;20371;-68
2021/12/06 10:06:34;;;;;;;90.67;37.90;;;;;;;-145.19;100.00;57938.22;5085280;28;20300;-68
2021/12/06 10:09:01;;;;;;;85.20;34.40;;;;;;;-145.19;100.00;57938.22;5074999;28;20791;-68
2021/12/06 10:11:27;;;;;;;80.80;33.93;;;;;;;-145.19;100.00;57938.22;5064950;28;20345;-69
2021/12/06 10:13:55;;;;;;;83.83;35.57;;;;;;;-145.19;100.00;57938.22;5072220;28;20360;-69
2021/12/06 10:16:22;;;;;;;80.20;34.63;;;;;;;-145.19;100.00;57938.22;5063754;28;20098;-69
2021/12/06 10:18:48;;;;;;;77.63;33.33;;;;;;;-145.19;100.00;57938.22;5066837;28;20270;-68
2021/12/06 10:21:15;;;;;;;82.90;33.97;;;;;;;-145.19;100.00;57938.22;5063885;28;20269;-68
2021/12/06 10:23:42;;;;;;;81.97;32.77;;;;;;;-145.19;100.00;57938.22;5072837;28;20277;-68
2021/12/06 10:26:10;;;;;;;79.07;35.20;;;;;;;-145.19;100.00;57938.22;5073302;28;20266;-68
2021/12/06 10:28:39;;;;;;;91.53;35.30;;;;;;;-145.19;100.00;57938.22;5080182;28;20301;-68
2021/12/06 10:31:06;;;;;;;82.73;33.83;;;;;;;-145.19;100.00;57938.22;5083288;28;20279;-68
2021/12/06 10:33:35;;;;;;;94.20;38.93;;;;;;;-145.19;100.00;57938.22;5085362;28;20285;-68
2021/12/06 10:36:09;;;;;;;87.43;34.10;;;;;;;-145.19;100.00;57938.22;5073328;28;20284;-68
2021/12/06 10:38:42;;;;;;;91.90;35.70;;;;;;;-145.19;100.00;57938.22;5065828;28;20281;-68
2021/12/06 10:41:15;;;;;;;96.30;38.50;;;;;;;-145.19;100.00;57938.22;5053158;28;20280;-68
2021/12/06 10:43:57;;;;;;;106.47;40.90;;;;;;;-145.19;100.00;57938.22;5073060;28;20301;-68
2021/12/06 10:46:24;;;;;;;111.40;40.93;;;;;;;-145.19;100.00;57938.22;5071554;28;20625;-68
2021/12/06 10:48:53;;;;;;;115.53;38.80;;;;;;;-145.19;100.00;57938.22;5070084;28;20340;-68
2021/12/06 10:51:20;;;;;;;106.67;40.30;;;;;;;-145.19;100.00;57938.22;5069962;28;20288;-68
2021/12/06 10:53:58;;;;;;;113.70;41.53;;;;;;;-145.19;100.00;57938.22;5070723;28;20305;-68
2021/12/06 10:56:33;;;;;;;102.60;39.30;;;;;;;-145.19;100.00;57938.22;5082819;28;20273;-68
2021/12/06 10:59:05;;;;;;;109.37;39.53;;;;;;;-145.19;100.00;57938.22;5057439;28;20262;-68
2021/12/06 11:01:32;;;;;;;101.47;38.87;;;;;;;-145.19;100.00;57938.22;5068419;28;20280;-68
2021/12/06 11:04:00;;;;;;;108.20;40.33;;;;;;;-145.19;100.00;57938.22;5061545;28;20288;-68
2021/12/06 11:06:42;;;;;;;107.70;39.80;;;;;;;-145.19;100.00;57938.22;5072825;28;20900;-68
2021/12/06 11:09:10;;;;;;;107.77;39.97;;;;;;;-145.19;100.00;57938.22;5070455;28;20311;-68